createdAt,value
2019-04-28T00:01:11.436Z,50.93
2019-04-28T00:02:18.002Z,50.92
2019-04-28T00:03:22.322Z,50.84
2019-04-28T00:04:26.319Z,50.86
2019-04-28T00:05:30.906Z,50.91
2019-04-28T00:06:35.992Z,50.85
2019-04-28T00:07:41.090Z,50.73
2019-04-28T00:08:45.155Z,50.79
2019-04-28T00:09:51.012Z,50.83
2019-04-28T00:10:54.863Z,50.85
2019-04-28T00:11:58.892Z,50.82
2019-04-28T00:13:03.017Z,50.81
2019-04-28T00:14:08.525Z,50.84
2019-04-28T00:15:12.748Z,50.89
2019-04-28T00:16:17.061Z,50.90
2019-04-28T00:17:21.281Z,50.94
2019-04-28T00:18:25.702Z,50.83
2019-04-28T00:19:31.009Z,50.79
2019-04-28T00:20:47.818Z,50.86
2019-04-28T00:21:57.993Z,50.88
2019-04-28T00:23:11.962Z,50.98
2019-04-28T00:24:47.069Z,51.13
2019-04-28T00:26:03.316Z,51.20
2019-04-28T00:27:09.410Z,51.23
2019-04-28T00:28:13.253Z,51.28
2019-04-28T00:29:17.169Z,51.34
2019-04-28T00:30:21.796Z,51.36
2019-04-28T00:31:26.080Z,51.35
2019-04-28T00:32:32.391Z,51.35
2019-04-28T00:33:36.802Z,51.33
2019-04-28T00:34:41.462Z,51.35
2019-04-28T00:35:45.509Z,51.32
2019-04-28T00:36:53.807Z,51.28
2019-04-28T00:37:58.263Z,51.22
2019-04-28T00:39:02.546Z,51.20
2019-04-28T00:40:10.950Z,51.16
2019-04-28T00:41:14.875Z,51.13
2019-04-28T00:42:18.769Z,51.12
2019-04-28T00:43:22.875Z,51.17
2019-04-28T00:44:27.257Z,51.19
2019-04-28T00:45:31.447Z,51.19
2019-04-28T00:46:36.461Z,51.20
2019-04-28T00:47:40.840Z,51.23
2019-04-28T00:48:46.750Z,51.22
2019-04-28T00:49:51.904Z,51.27
2019-04-28T00:50:56.694Z,51.35
2019-04-28T00:52:03.040Z,51.38
2019-04-28T00:53:06.798Z,51.34
2019-04-28T00:54:12.048Z,51.37
2019-04-28T00:55:16.483Z,51.49
2019-04-28T00:56:21.799Z,51.54
2019-04-28T00:57:25.809Z,51.54
2019-04-28T00:58:29.733Z,51.52
2019-04-28T00:59:33.776Z,51.53
2019-04-28T01:00:41.342Z,51.50
2019-04-28T01:01:51.693Z,51.50
2019-04-28T01:02:55.705Z,51.41
2019-04-28T01:04:01.951Z,51.45
2019-04-28T01:05:07.054Z,51.46
2019-04-28T01:06:11.595Z,51.46
2019-04-28T01:07:17.022Z,51.46
2019-04-28T01:08:21.321Z,51.52
2019-04-28T01:09:25.376Z,51.50
2019-04-28T01:10:30.913Z,51.45
2019-04-28T01:11:34.894Z,51.47
2019-04-28T01:12:40.590Z,51.46
2019-04-28T01:13:44.638Z,51.49
2019-04-28T01:14:49.780Z,51.48
2019-04-28T01:16:16.310Z,51.45
2019-04-28T01:17:29.652Z,51.48
2019-04-28T01:18:56.104Z,51.46
2019-04-28T01:20:00.928Z,51.49
2019-04-28T01:21:04.917Z,51.70
2019-04-28T01:22:10.532Z,51.82
2019-04-28T01:23:14.782Z,51.86
2019-04-28T01:24:20.077Z,51.78
2019-04-28T01:25:24.092Z,51.78
2019-04-28T01:26:29.908Z,51.78
2019-04-28T01:27:53.830Z,51.74
2019-04-28T01:28:59.563Z,51.77
2019-04-28T01:30:08.610Z,51.71
2019-04-28T01:31:26.408Z,51.72
2019-04-28T01:32:44.813Z,51.72
2019-04-28T01:34:07.800Z,51.70
2019-04-28T01:35:11.788Z,51.65
2019-04-28T01:36:15.776Z,51.61
2019-04-28T01:37:19.769Z,51.60
2019-04-28T01:38:24.278Z,51.57
2019-04-28T01:39:29.720Z,51.55
2019-04-28T01:40:34.423Z,51.54
2019-04-28T01:41:39.742Z,51.52
2019-04-28T01:42:44.068Z,51.48
2019-04-28T01:43:48.058Z,51.50
2019-04-28T01:44:52.480Z,51.49
2019-04-28T01:45:56.482Z,51.46
2019-04-28T01:47:01.201Z,51.44
2019-04-28T01:48:05.609Z,51.41
2019-04-28T01:49:09.711Z,51.35
2019-04-28T01:50:13.621Z,51.37
2019-04-28T01:51:19.092Z,51.37
2019-04-28T01:52:24.014Z,51.37
2019-04-28T01:53:28.025Z,51.35
2019-04-28T01:54:31.954Z,51.27
2019-04-28T01:55:35.989Z,51.20
2019-04-28T01:56:40.446Z,51.23
2019-04-28T01:57:44.789Z,51.22
2019-04-28T01:58:49.932Z,51.10
2019-04-28T01:59:54.837Z,51.14
2019-04-28T02:00:59.549Z,51.20
2019-04-28T02:02:03.821Z,51.26
2019-04-28T02:03:07.890Z,51.26
2019-04-28T02:04:12.583Z,51.22
2019-04-28T02:05:16.941Z,51.24
2019-04-28T02:06:21.197Z,51.26
2019-04-28T02:07:25.780Z,51.26
2019-04-28T02:08:30.304Z,51.26
2019-04-28T02:09:34.424Z,51.27
2019-04-28T02:10:40.061Z,51.26
2019-04-28T02:11:44.148Z,51.23
2019-04-28T02:12:50.203Z,51.23
2019-04-28T02:13:54.605Z,51.20
2019-04-28T02:15:01.056Z,51.18
2019-04-28T02:16:04.886Z,51.13
2019-04-28T02:17:10.468Z,51.10
2019-04-28T02:18:14.941Z,51.07
2019-04-28T02:19:20.345Z,50.97
2019-04-28T02:20:24.492Z,50.87
2019-04-28T02:21:47.102Z,50.86
2019-04-28T02:22:59.837Z,50.64
2019-04-28T02:24:21.531Z,50.54
2019-04-28T02:25:25.569Z,50.70
2019-04-28T02:26:29.852Z,50.89
2019-04-28T02:27:33.909Z,50.97
2019-04-28T02:28:37.846Z,51.02
2019-04-28T02:29:41.874Z,51.03
2019-04-28T02:30:50.256Z,51.04
2019-04-28T02:31:51.523Z,51.02
2019-04-28T02:32:55.902Z,51.03
2019-04-28T02:34:00.763Z,51.02
2019-04-28T02:35:05.964Z,51.00
2019-04-28T02:36:12.348Z,50.99
2019-04-28T02:37:15.999Z,50.98
2019-04-28T02:38:21.066Z,50.91
2019-04-28T02:39:25.227Z,50.92
2019-04-28T02:40:30.556Z,50.91
2019-04-28T02:41:34.791Z,50.86
2019-04-28T02:42:41.011Z,50.80
2019-04-28T02:43:44.614Z,50.88
2019-04-28T02:44:50.391Z,50.94
2019-04-28T02:45:55.090Z,50.96
2019-04-28T02:47:00.759Z,50.98
2019-04-28T02:48:06.786Z,51.02
2019-04-28T02:49:13.594Z,51.03
2019-04-28T02:50:26.441Z,51.04
2019-04-28T02:51:35.338Z,51.00
2019-04-28T02:52:56.946Z,50.97
2019-04-28T02:54:01.113Z,50.94
2019-04-28T02:55:05.387Z,50.93
2019-04-28T02:56:11.272Z,50.91
2019-04-28T02:57:15.503Z,50.92
2019-04-28T02:58:22.470Z,50.92
2019-04-28T02:59:25.391Z,50.94
2019-04-28T03:00:31.700Z,50.93
2019-04-28T03:01:35.526Z,50.89
2019-04-28T03:02:41.329Z,50.90
2019-04-28T03:03:45.255Z,50.93
2019-04-28T03:04:50.664Z,50.93
2019-04-28T03:05:55.265Z,50.92
2019-04-28T03:07:01.325Z,50.88
2019-04-28T03:08:05.370Z,50.91
2019-04-28T03:09:10.551Z,50.89
2019-04-28T03:10:14.860Z,50.90
2019-04-28T03:11:20.330Z,50.90
2019-04-28T03:12:24.534Z,50.85
2019-04-28T03:13:31.030Z,50.85
2019-04-28T03:14:34.269Z,50.92
2019-04-28T03:15:41.276Z,50.94
2019-04-28T03:16:44.333Z,50.96
2019-04-28T03:17:52.539Z,50.96
2019-04-28T03:18:54.396Z,50.96
2019-04-28T03:20:01.088Z,50.92
2019-04-28T03:21:04.693Z,50.77
2019-04-28T03:22:11.300Z,50.81
2019-04-28T03:23:14.436Z,50.88
2019-04-28T03:24:21.211Z,50.93
2019-04-28T03:25:36.447Z,50.94
2019-04-28T03:27:05.376Z,50.93
2019-04-28T03:28:30.818Z,50.96
2019-04-28T03:29:40.421Z,51.05
2019-04-28T03:31:36.738Z,51.11
2019-04-28T03:32:37.066Z,51.14
2019-04-28T03:33:32.972Z,51.18
2019-04-28T03:34:43.558Z,51.21
2019-04-28T03:35:53.082Z,51.26
2019-04-28T03:36:53.921Z,51.31
2019-04-28T03:37:57.923Z,51.35
2019-04-28T03:39:01.804Z,51.38
2019-04-28T03:40:06.631Z,51.39
2019-04-28T03:41:11.377Z,51.43
2019-04-28T03:42:15.434Z,51.49
2019-04-28T03:43:21.199Z,51.51
2019-04-28T03:44:25.363Z,51.55
2019-04-28T03:45:34.483Z,51.60
2019-04-28T03:46:44.540Z,51.62
2019-04-28T03:47:50.889Z,51.64
2019-04-28T03:48:54.352Z,51.74
2019-04-28T03:50:00.094Z,51.77
2019-04-28T03:51:04.297Z,51.81
2019-04-28T03:52:10.710Z,51.86
2019-04-28T03:53:14.131Z,51.89
2019-04-28T03:54:20.288Z,51.97
2019-04-28T03:55:23.777Z,52.15
2019-04-28T03:56:27.711Z,52.21
2019-04-28T03:57:31.864Z,52.23
2019-04-28T03:58:35.853Z,52.32
2019-04-28T03:59:41.276Z,52.34
2019-04-28T04:00:45.725Z,52.38
2019-04-28T04:01:58.569Z,52.38
2019-04-28T04:02:55.681Z,52.36
2019-04-28T04:04:03.113Z,52.41
2019-04-28T04:05:05.614Z,52.43
2019-04-28T04:06:10.536Z,52.49
2019-04-28T04:07:14.590Z,52.47
2019-04-28T04:08:20.838Z,52.49
2019-04-28T04:09:26.806Z,52.46
2019-04-28T04:10:40.410Z,52.47
2019-04-28T04:12:04.257Z,52.47
2019-04-28T04:13:15.133Z,52.45
2019-04-28T04:14:32.565Z,52.38
2019-04-28T04:15:55.489Z,52.39
2019-04-28T04:17:04.750Z,52.35
2019-04-28T04:18:12.287Z,52.33
2019-04-28T04:19:16.446Z,52.32
2019-04-28T04:20:24.724Z,52.32
2019-04-28T04:21:30.993Z,52.35
2019-04-28T04:22:34.942Z,52.38
2019-04-28T04:23:41.060Z,52.41
2019-04-28T04:24:45.260Z,52.45
2019-04-28T04:25:51.255Z,52.47
2019-04-28T04:26:56.014Z,52.46
2019-04-28T04:28:03.833Z,52.45
2019-04-28T04:29:06.164Z,52.46
2019-04-28T04:30:10.912Z,52.47
2019-04-28T04:31:15.299Z,52.49
2019-04-28T04:32:24.293Z,52.51
2019-04-28T04:33:25.200Z,52.48
2019-04-28T04:34:30.211Z,52.50
2019-04-28T04:35:34.981Z,52.50
2019-04-28T04:36:41.656Z,52.55
2019-04-28T04:37:45.233Z,52.61
2019-04-28T04:38:51.297Z,52.67
2019-04-28T04:39:55.457Z,52.72
2019-04-28T04:41:01.558Z,52.76
2019-04-28T04:42:05.847Z,52.88
2019-04-28T04:43:11.417Z,52.91
2019-04-28T04:44:15.591Z,52.93
2019-04-28T04:45:20.335Z,52.95
2019-04-28T04:46:25.440Z,53.02
2019-04-28T04:47:32.487Z,53.01
2019-04-28T04:48:35.789Z,52.99
2019-04-28T04:49:40.519Z,53.09
2019-04-28T04:50:44.499Z,53.14
2019-04-28T04:51:50.914Z,53.19
2019-04-28T04:52:54.635Z,53.16
2019-04-28T04:54:01.025Z,53.12
2019-04-28T04:55:04.917Z,53.13
2019-04-28T04:56:10.541Z,53.06
2019-04-28T04:57:14.628Z,53.04
2019-04-28T04:58:21.447Z,53.00
2019-04-28T04:59:25.328Z,52.93
2019-04-28T05:00:46.118Z,52.90
2019-04-28T05:02:29.486Z,52.88
2019-04-28T05:03:31.348Z,52.87
2019-04-28T05:05:11.704Z,52.91
2019-04-28T05:06:33.466Z,52.96
2019-04-28T05:07:39.625Z,52.98
2019-04-28T05:08:43.725Z,52.98
2019-04-28T05:09:49.557Z,53.01
2019-04-28T05:10:54.177Z,52.97
2019-04-28T05:11:59.758Z,52.89
2019-04-28T05:13:04.125Z,52.90
2019-04-28T05:14:11.567Z,52.91
2019-04-28T05:15:14.778Z,52.85
2019-04-28T05:16:19.771Z,52.78
2019-04-28T05:17:24.125Z,52.74
2019-04-28T05:18:29.730Z,52.72
2019-04-28T05:19:33.961Z,52.78
2019-04-28T05:20:40.199Z,52.82
2019-04-28T05:21:44.633Z,52.80
2019-04-28T05:22:57.741Z,52.79
2019-04-28T05:24:26.796Z,52.80
2019-04-28T05:25:35.808Z,52.98
2019-04-28T05:26:42.495Z,53.05
2019-04-28T05:27:45.611Z,53.10
2019-04-28T05:28:53.215Z,53.04
2019-04-28T05:29:57.026Z,52.99
2019-04-28T05:31:01.493Z,52.99
2019-04-28T05:32:05.731Z,52.93
2019-04-28T05:33:12.365Z,52.84
2019-04-28T05:34:16.436Z,52.85
2019-04-28T05:35:22.012Z,52.82
2019-04-28T05:36:26.252Z,52.75
2019-04-28T05:37:30.165Z,52.71
2019-04-28T05:38:34.157Z,52.66
2019-04-28T05:39:40.343Z,52.64
2019-04-28T05:40:43.730Z,52.56
2019-04-28T05:41:47.970Z,52.51
2019-04-28T05:43:01.324Z,52.33
2019-04-28T05:44:05.633Z,52.26
2019-04-28T05:45:10.481Z,52.14
2019-04-28T05:46:14.641Z,52.13
2019-04-28T05:47:20.346Z,52.14
2019-04-28T05:48:59.995Z,52.15
2019-04-28T05:50:10.627Z,52.09
2019-04-28T05:51:17.099Z,51.66
2019-04-28T05:52:40.319Z,51.75
2019-04-28T05:53:52.261Z,51.79
2019-04-28T05:55:02.044Z,51.86
2019-04-28T05:56:13.419Z,51.93
2019-04-28T05:57:21.990Z,51.90
2019-04-28T05:58:51.150Z,51.80
2019-04-28T06:00:19.796Z,51.67
2019-04-28T06:01:43.185Z,51.47
2019-04-28T06:02:56.489Z,51.40
2019-04-28T06:03:54.173Z,51.23
2019-04-28T06:04:59.935Z,51.19
2019-04-28T06:06:04.080Z,51.21
2019-04-28T06:07:15.957Z,51.04
2019-04-28T06:08:40.737Z,50.83
2019-04-28T06:09:50.086Z,50.74
2019-04-28T06:10:54.432Z,50.71
2019-04-28T06:12:00.136Z,50.71
2019-04-28T06:13:04.766Z,50.79
2019-04-28T06:14:09.943Z,50.84
2019-04-28T06:15:14.611Z,50.81
2019-04-28T06:16:19.607Z,50.69
2019-04-28T06:17:24.865Z,50.19
2019-04-28T06:18:30.789Z,49.59
2019-04-28T06:19:34.817Z,49.45
2019-04-28T06:20:40.686Z,49.59
2019-04-28T06:21:45.072Z,49.54
2019-04-28T06:22:49.376Z,49.54
2019-04-28T06:23:53.685Z,49.57
2019-04-28T06:24:57.995Z,49.61
2019-04-28T06:26:02.512Z,49.27
2019-04-28T06:27:07.122Z,49.19
2019-04-28T06:28:11.431Z,49.21
2019-04-28T06:29:15.843Z,49.23
2019-04-28T06:30:19.841Z,49.27
2019-04-28T06:31:24.409Z,49.35
2019-04-28T06:32:28.660Z,49.34
2019-04-28T06:33:32.685Z,49.37
2019-04-28T06:34:36.684Z,49.36
2019-04-28T06:35:40.978Z,48.97
2019-04-28T06:36:45.489Z,48.62
2019-04-28T06:37:49.850Z,47.86
2019-04-28T06:38:54.105Z,47.78
2019-04-28T06:39:58.308Z,47.70
2019-04-28T06:41:02.328Z,47.73
2019-04-28T06:42:06.329Z,47.83
2019-04-28T06:43:10.837Z,47.83
2019-04-28T06:44:15.029Z,47.91
2019-04-28T06:45:19.022Z,47.80
2019-04-28T06:46:22.956Z,47.85
2019-04-28T06:47:26.963Z,47.74
2019-04-28T06:48:31.457Z,47.63
2019-04-28T06:49:35.431Z,47.68
2019-04-28T06:50:39.749Z,47.64
2019-04-28T06:51:43.682Z,47.52
2019-04-28T06:52:47.959Z,47.59
2019-04-28T06:53:52.572Z,47.70
2019-04-28T06:54:57.511Z,47.69
2019-04-28T06:56:01.819Z,47.69
2019-04-28T06:57:05.820Z,47.63
2019-04-28T06:58:09.818Z,47.55
2019-04-28T06:59:13.922Z,47.54
2019-04-28T07:00:18.324Z,47.44
2019-04-28T07:01:22.354Z,47.45
2019-04-28T07:02:26.445Z,47.31
2019-04-28T07:03:30.731Z,47.33
2019-04-28T07:04:34.730Z,47.31
2019-04-28T07:05:39.472Z,47.28
2019-04-28T07:06:43.403Z,47.19
2019-04-28T07:07:47.565Z,47.08
2019-04-28T07:08:51.796Z,47.04
2019-04-28T07:09:55.717Z,46.90
2019-04-28T07:10:59.563Z,46.54
2019-04-28T07:12:03.812Z,46.14
2019-04-28T07:13:08.046Z,46.28
2019-04-28T07:14:12.134Z,46.32
2019-04-28T07:15:16.057Z,46.19
2019-04-28T07:16:20.130Z,45.83
2019-04-28T07:17:24.051Z,45.85
2019-04-28T07:18:27.946Z,46.00
2019-04-28T07:19:33.455Z,46.11
2019-04-28T07:20:43.508Z,45.95
2019-04-28T07:21:53.211Z,45.78
2019-04-28T07:22:57.197Z,45.79
2019-04-28T07:24:01.440Z,45.83
2019-04-28T07:25:05.757Z,45.63
2019-04-28T07:26:09.678Z,45.53
2019-04-28T07:27:13.781Z,45.15
2019-04-28T07:28:18.122Z,45.09
2019-04-28T07:29:22.119Z,44.99
2019-04-28T07:30:26.364Z,44.56
2019-04-28T07:31:30.286Z,44.44
2019-04-28T07:32:34.217Z,44.47
2019-04-28T07:33:38.380Z,44.42
2019-04-28T07:34:42.875Z,44.41
2019-04-28T07:35:47.120Z,44.34
2019-04-28T07:36:51.209Z,44.01
2019-04-28T07:37:55.147Z,43.82
2019-04-28T07:38:59.149Z,43.54
2019-04-28T07:40:03.085Z,43.71
2019-04-28T07:41:07.001Z,43.70
2019-04-28T07:42:10.928Z,43.73
2019-04-28T07:43:15.187Z,43.34
2019-04-28T07:44:19.350Z,43.10
2019-04-28T07:45:23.970Z,43.35
2019-04-28T07:46:27.974Z,43.60
2019-04-28T07:47:32.278Z,43.64
2019-04-28T07:48:36.594Z,42.37
2019-04-28T07:49:40.962Z,42.57
2019-04-28T07:50:45.203Z,42.92
2019-04-28T07:52:03.445Z,43.22
2019-04-28T07:53:15.861Z,43.44
2019-04-28T07:54:20.164Z,43.65
2019-04-28T07:55:24.161Z,43.39
2019-04-28T07:56:28.170Z,43.40
2019-04-28T07:57:32.763Z,43.31
2019-04-28T07:58:37.379Z,43.37
2019-04-28T07:59:41.706Z,43.07
2019-04-28T08:00:48.715Z,42.34
2019-04-28T08:01:51.985Z,42.17
2019-04-28T08:02:56.032Z,42.47
2019-04-28T08:04:00.033Z,42.73
2019-04-28T08:05:04.145Z,42.97
2019-04-28T08:06:08.142Z,43.09
2019-04-28T08:07:12.249Z,43.19
2019-04-28T08:08:16.357Z,43.17
2019-04-28T08:09:20.792Z,43.12
2019-04-28T08:10:25.073Z,43.04
2019-04-28T08:11:29.005Z,42.91
2019-04-28T08:12:32.981Z,42.62
2019-04-28T08:13:37.254Z,42.43
2019-04-28T08:14:41.790Z,42.31
2019-04-28T08:15:46.433Z,42.05
2019-04-28T08:16:50.603Z,41.64
2019-04-28T08:17:54.527Z,41.60
2019-04-28T08:18:59.228Z,41.84
2019-04-28T08:20:05.620Z,41.19
2019-04-28T08:21:08.881Z,41.19
2019-04-28T08:22:13.177Z,41.22
2019-04-28T08:23:17.390Z,41.17
2019-04-28T08:24:21.425Z,41.30
2019-04-28T08:25:25.421Z,41.17
2019-04-28T08:26:29.419Z,40.45
2019-04-28T08:27:33.282Z,40.45
2019-04-28T08:28:37.141Z,40.30
2019-04-28T08:29:41.061Z,39.75
2019-04-28T08:30:45.321Z,40.00
2019-04-28T08:31:59.463Z,40.44
2019-04-28T08:33:09.537Z,40.75
2019-04-28T08:34:13.880Z,41.00
2019-04-28T08:35:17.805Z,41.12
2019-04-28T08:36:22.085Z,41.26
2019-04-28T08:37:26.189Z,41.24
2019-04-28T08:38:30.226Z,41.30
2019-04-28T08:39:34.501Z,41.45
2019-04-28T08:40:38.509Z,41.60
2019-04-28T08:41:42.744Z,41.71
2019-04-28T08:42:46.738Z,41.54
2019-04-28T08:43:50.682Z,41.40
2019-04-28T08:44:54.610Z,41.18
2019-04-28T08:45:58.932Z,40.87
2019-04-28T08:47:02.940Z,40.76
2019-04-28T08:48:07.242Z,40.91
2019-04-28T08:49:11.531Z,41.15
2019-04-28T08:50:17.584Z,40.15
2019-04-28T08:51:21.604Z,40.47
2019-04-28T08:52:25.990Z,40.27
2019-04-28T08:53:29.991Z,40.24
2019-04-28T08:54:34.317Z,40.31
2019-04-28T08:55:38.434Z,40.67
2019-04-28T08:56:42.356Z,40.94
2019-04-28T08:57:46.611Z,41.16
2019-04-28T08:58:50.604Z,41.30
2019-04-28T08:59:54.613Z,41.44
2019-04-28T09:00:58.543Z,40.94
2019-04-28T09:02:02.544Z,41.14
2019-04-28T09:03:06.846Z,41.19
2019-04-28T09:04:15.429Z,41.23
2019-04-28T09:05:16.856Z,41.12
2019-04-28T09:06:20.787Z,41.16
2019-04-28T09:07:24.798Z,41.19
2019-04-28T09:08:29.077Z,40.86
2019-04-28T09:09:33.337Z,39.50
2019-04-28T09:10:37.192Z,39.73
2019-04-28T09:11:41.382Z,39.39
2019-04-28T09:12:45.551Z,38.97
2019-04-28T09:13:49.479Z,39.24
2019-04-28T09:14:53.667Z,39.19
2019-04-28T09:15:57.953Z,39.08
2019-04-28T09:17:01.955Z,38.72
2019-04-28T09:18:05.953Z,38.45
2019-04-28T09:19:10.557Z,37.49
2019-04-28T09:20:14.614Z,36.74
2019-04-28T09:21:18.777Z,37.00
2019-04-28T09:22:23.262Z,37.10
2019-04-28T09:23:27.257Z,37.03
2019-04-28T09:24:31.264Z,36.87
2019-04-28T09:25:35.569Z,36.81
2019-04-28T09:26:39.573Z,36.85
2019-04-28T09:27:44.186Z,36.63
2019-04-28T09:28:48.297Z,36.51
2019-04-28T09:29:52.237Z,36.72
2019-04-28T09:30:56.240Z,36.23
2019-04-28T09:32:00.234Z,35.57
2019-04-28T09:33:04.161Z,35.72
2019-04-28T09:34:08.477Z,35.68
2019-04-28T09:35:12.600Z,35.91
2019-04-28T09:36:16.641Z,36.33
2019-04-28T09:37:20.644Z,36.22
2019-04-28T09:38:24.994Z,35.07
2019-04-28T09:39:46.403Z,34.56
2019-04-28T09:40:50.752Z,34.74
2019-04-28T09:42:12.388Z,35.47
2019-04-28T09:43:21.363Z,35.52
2019-04-28T09:44:37.430Z,35.93
2019-04-28T09:45:59.867Z,36.42
2019-04-28T09:47:04.290Z,36.15
2019-04-28T09:48:08.639Z,36.10
2019-04-28T09:49:12.640Z,36.15
2019-04-28T09:50:16.661Z,36.29
2019-04-28T09:51:20.666Z,36.43
2019-04-28T09:52:24.993Z,36.55
2019-04-28T09:53:28.921Z,36.82
2019-04-28T09:54:33.209Z,36.88
2019-04-28T09:55:37.397Z,36.89
2019-04-28T09:56:41.397Z,37.09
2019-04-28T09:57:45.400Z,37.28
2019-04-28T09:58:49.322Z,36.14
2019-04-28T09:59:53.335Z,36.29
2019-04-28T10:00:57.515Z,35.98
2019-04-28T10:02:01.828Z,35.84
2019-04-28T10:03:05.828Z,36.10
2019-04-28T10:04:09.827Z,36.14
2019-04-28T10:05:13.951Z,36.44
2019-04-28T10:06:17.883Z,36.21
2019-04-28T10:07:21.876Z,36.27
2019-04-28T10:08:25.802Z,36.69
2019-04-28T10:09:30.171Z,36.92
2019-04-28T10:10:34.173Z,37.07
2019-04-28T10:11:38.098Z,37.17
2019-04-28T10:12:42.025Z,37.31
2019-04-28T10:13:46.032Z,37.42
2019-04-28T10:14:49.968Z,37.42
2019-04-28T10:15:54.076Z,37.56
2019-04-28T10:16:58.002Z,37.67
2019-04-28T10:18:02.030Z,37.79
2019-04-28T10:19:06.413Z,37.90
2019-04-28T10:20:10.984Z,37.96
2019-04-28T10:21:15.274Z,37.95
2019-04-28T10:22:19.265Z,37.99
2019-04-28T10:23:23.369Z,38.02
2019-04-28T10:24:27.786Z,37.98
2019-04-28T10:25:31.791Z,38.00
2019-04-28T10:26:35.917Z,38.01
2019-04-28T10:27:40.302Z,37.96
2019-04-28T10:28:45.036Z,37.84
2019-04-28T10:29:48.929Z,37.51
2019-04-28T10:30:53.014Z,37.52
2019-04-28T10:31:56.939Z,37.43
2019-04-28T10:33:01.253Z,37.17
2019-04-28T10:34:05.672Z,36.67
2019-04-28T10:35:10.181Z,36.59
2019-04-28T10:36:16.106Z,36.41
2019-04-28T10:37:20.349Z,36.29
2019-04-28T10:38:24.599Z,35.99
2019-04-28T10:39:33.590Z,35.84
2019-04-28T10:40:44.053Z,35.92
2019-04-28T10:41:48.384Z,35.90
2019-04-28T10:42:52.623Z,35.53
2019-04-28T10:43:56.627Z,35.39
2019-04-28T10:45:01.133Z,35.28
2019-04-28T10:46:05.136Z,35.25
2019-04-28T10:47:09.136Z,35.21
2019-04-28T10:48:13.542Z,35.26
2019-04-28T10:49:18.014Z,35.25
2019-04-28T10:50:22.238Z,34.64
2019-04-28T10:51:26.581Z,34.35
2019-04-28T10:52:30.573Z,33.69
2019-04-28T10:53:34.571Z,33.58
2019-04-28T10:54:38.809Z,33.37
2019-04-28T10:55:43.165Z,33.65
2019-04-28T10:56:47.098Z,33.98
2019-04-28T10:57:50.955Z,33.77
2019-04-28T10:58:55.802Z,33.35
2019-04-28T10:59:59.808Z,33.32
2019-04-28T11:01:03.817Z,33.53
2019-04-28T11:02:07.910Z,32.93
2019-04-28T11:03:11.904Z,33.17
2019-04-28T11:04:33.554Z,33.46
2019-04-28T11:05:42.937Z,33.63
2019-04-28T11:06:46.861Z,33.85
2019-04-28T11:07:50.970Z,33.99
2019-04-28T11:09:04.320Z,34.13
2019-04-28T11:10:12.497Z,33.90
2019-04-28T11:11:27.923Z,34.05
2019-04-28T11:12:31.837Z,34.15
2019-04-28T11:13:36.130Z,34.40
2019-04-28T11:14:40.438Z,34.59
2019-04-28T11:15:44.430Z,33.94
2019-04-28T11:16:48.647Z,32.58
2019-04-28T11:17:52.957Z,32.25
2019-04-28T11:18:57.570Z,32.46
2019-04-28T11:20:01.594Z,32.94
2019-04-28T11:21:05.678Z,33.37
2019-04-28T11:22:09.931Z,33.61
2019-04-28T11:23:13.861Z,33.78
2019-04-28T11:24:17.967Z,33.71
2019-04-28T11:25:21.967Z,33.79
2019-04-28T11:26:26.802Z,33.96
2019-04-28T11:27:31.318Z,33.89
2019-04-28T11:28:37.827Z,33.73
2019-04-28T11:29:41.471Z,33.77
2019-04-28T11:30:46.006Z,33.59
2019-04-28T11:31:50.697Z,33.52
2019-04-28T11:33:12.856Z,33.56
2019-04-28T11:34:25.841Z,33.06
2019-04-28T11:35:30.905Z,33.34
2019-04-28T11:36:34.917Z,33.86
2019-04-28T11:37:39.019Z,34.06
2019-04-28T11:38:43.108Z,34.19
2019-04-28T11:39:47.275Z,33.98
2019-04-28T11:40:51.689Z,34.03
2019-04-28T11:41:55.545Z,33.99
2019-04-28T11:42:59.462Z,33.92
2019-04-28T11:44:03.698Z,33.89
2019-04-28T11:45:08.497Z,34.04
2019-04-28T11:46:14.266Z,34.23
2019-04-28T11:47:19.859Z,34.31
2019-04-28T11:48:24.025Z,33.99
2019-04-28T11:49:28.305Z,33.54
2019-04-28T11:50:32.243Z,33.37
2019-04-28T11:51:36.473Z,33.27
2019-04-28T11:52:40.413Z,33.02
2019-04-28T11:53:44.648Z,33.00
2019-04-28T11:54:48.937Z,33.03
2019-04-28T11:55:53.430Z,33.06
2019-04-28T11:56:57.437Z,32.83
2019-04-28T11:58:01.358Z,32.83
2019-04-28T11:59:05.612Z,32.79
2019-04-28T12:00:21.777Z,32.82
2019-04-28T12:01:26.033Z,33.00
2019-04-28T12:02:30.341Z,33.13
2019-04-28T12:03:34.339Z,32.96
2019-04-28T12:04:38.492Z,32.99
2019-04-28T12:05:44.934Z,32.94
2019-04-28T12:06:49.210Z,32.87
2019-04-28T12:07:53.418Z,32.91
2019-04-28T12:09:02.219Z,33.02
2019-04-28T12:10:16.797Z,33.22
2019-04-28T12:11:30.365Z,33.12
2019-04-28T12:12:52.147Z,32.89
2019-04-28T12:14:18.582Z,32.93
2019-04-28T12:15:40.174Z,33.22
2019-04-28T12:17:09.241Z,33.65
2019-04-28T12:18:27.986Z,33.81
2019-04-28T12:19:37.665Z,33.53
2019-04-28T12:20:42.043Z,33.79
2019-04-28T12:21:46.058Z,33.99
2019-04-28T12:22:50.077Z,34.08
2019-04-28T12:23:54.176Z,33.83
2019-04-28T12:24:58.111Z,33.93
2019-04-28T12:26:02.358Z,34.08
2019-04-28T12:27:06.365Z,34.01
2019-04-28T12:28:10.302Z,33.88
2019-04-28T12:29:14.294Z,33.52
2019-04-28T12:30:18.796Z,33.02
2019-04-28T12:31:22.650Z,32.90
2019-04-28T12:32:26.877Z,32.95
2019-04-28T12:33:30.819Z,33.03
2019-04-28T12:34:35.032Z,33.17
2019-04-28T12:35:47.668Z,33.24
2019-04-28T12:36:44.683Z,33.25
2019-04-28T12:37:48.601Z,33.13
2019-04-28T12:38:52.929Z,33.09
2019-04-28T12:39:57.357Z,32.89
2019-04-28T12:41:01.319Z,32.66
2019-04-28T12:42:05.646Z,32.16
2019-04-28T12:43:09.952Z,31.76
2019-04-28T12:44:14.184Z,31.57
2019-04-28T12:45:18.206Z,31.07
2019-04-28T12:46:22.088Z,30.96
2019-04-28T12:47:26.094Z,30.99
2019-04-28T12:48:32.598Z,31.21
2019-04-28T12:49:46.353Z,30.80
2019-04-28T12:50:51.813Z,30.54
2019-04-28T12:51:55.748Z,30.37
2019-04-28T12:53:00.005Z,30.19
2019-04-28T12:54:06.227Z,29.93
2019-04-28T12:55:10.438Z,29.87
2019-04-28T12:56:15.322Z,29.98
2019-04-28T12:57:19.506Z,29.92
2019-04-28T12:58:23.696Z,29.90
2019-04-28T12:59:34.024Z,30.04
2019-04-28T13:00:47.176Z,29.87
2019-04-28T13:02:10.149Z,29.90
2019-04-28T13:03:26.022Z,29.65
2019-04-28T13:04:42.224Z,29.39
2019-04-28T13:05:46.570Z,29.52
2019-04-28T13:07:04.007Z,29.68
2019-04-28T13:08:08.253Z,29.75
2019-04-28T13:09:12.277Z,30.02
2019-04-28T13:10:16.515Z,30.40
2019-04-28T13:11:20.762Z,30.69
2019-04-28T13:12:24.806Z,30.94
2019-04-28T13:13:29.088Z,31.08
2019-04-28T13:14:33.653Z,31.07
2019-04-28T13:15:37.668Z,31.18
2019-04-28T13:16:42.247Z,31.29
2019-04-28T13:17:46.763Z,31.45
2019-04-28T13:18:50.697Z,31.63
2019-04-28T13:19:55.272Z,31.67
2019-04-28T13:20:59.997Z,31.77
2019-04-28T13:22:05.608Z,31.72
2019-04-28T13:23:10.041Z,31.60
2019-04-28T13:24:14.082Z,31.45
2019-04-28T13:25:18.454Z,31.29
2019-04-28T13:26:22.465Z,31.32
2019-04-28T13:27:26.483Z,31.48
2019-04-28T13:28:31.071Z,31.64
2019-04-28T13:29:35.091Z,31.71
2019-04-28T13:30:39.051Z,31.82
2019-04-28T13:31:43.522Z,31.84
2019-04-28T13:32:47.746Z,31.66
2019-04-28T13:33:56.303Z,31.64
2019-04-28T13:34:57.729Z,31.40
2019-04-28T13:36:14.041Z,31.06
2019-04-28T13:37:07.703Z,31.09
2019-04-28T13:38:11.706Z,30.94
2019-04-28T13:39:23.704Z,30.81
2019-04-28T13:40:30.767Z,30.89
2019-04-28T13:41:37.253Z,30.85
2019-04-28T13:42:40.526Z,30.83
2019-04-28T13:43:45.011Z,30.93
2019-04-28T13:45:10.602Z,31.01
2019-04-28T13:46:14.611Z,30.33
2019-04-28T13:47:18.630Z,30.10
2019-04-28T13:48:22.920Z,30.13
2019-04-28T13:49:28.938Z,30.31
2019-04-28T13:50:37.027Z,30.32
2019-04-28T13:51:41.042Z,30.50
2019-04-28T13:52:45.285Z,30.55
2019-04-28T13:53:49.595Z,30.58
2019-04-28T13:54:57.094Z,30.63
2019-04-28T13:56:03.414Z,30.40
2019-04-28T13:57:07.637Z,30.23
2019-04-28T13:58:11.814Z,30.08
2019-04-28T13:59:18.655Z,30.12
2019-04-28T14:00:29.305Z,30.29
2019-04-28T14:01:45.249Z,30.35
2019-04-28T14:02:59.040Z,30.26
2019-04-28T14:04:25.093Z,28.91
2019-04-28T14:05:48.334Z,29.29
2019-04-28T14:06:54.907Z,29.62
2019-04-28T14:07:59.093Z,29.64
2019-04-28T14:09:03.413Z,29.79
2019-04-28T14:10:07.738Z,29.78
2019-04-28T14:11:11.694Z,29.79
2019-04-28T14:12:15.669Z,29.75
2019-04-28T14:13:20.166Z,29.53